createdAt,value
2022-10-14T00:00:44.026Z,26.90
2022-10-14T00:03:10.853Z,27.90
2022-10-14T00:05:40.779Z,27.62
2022-10-14T00:08:09.121Z,28.45
2022-10-14T00:10:39.966Z,26.10
2022-10-14T00:13:07.177Z,25.83
2022-10-14T00:15:38.963Z,26.75
2022-10-14T00:18:06.838Z,27.17
2022-10-14T00:20:34.005Z,25.00
2022-10-14T00:23:00.829Z,20.75
2022-10-14T00:25:28.380Z,23.12
2022-10-14T00:27:55.618Z,21.62
2022-10-14T00:30:22.872Z,21.83
2022-10-14T00:32:49.732Z,22.23
2022-10-14T00:35:16.808Z,21.55
2022-10-14T00:37:43.657Z,22.27
2022-10-14T00:40:11.045Z,21.02
2022-10-14T00:42:37.901Z,21.70
2022-10-14T00:45:09.970Z,22.83
2022-10-14T00:47:36.902Z,22.35
2022-10-14T00:50:04.107Z,22.15
2022-10-14T00:52:31.216Z,20.75
2022-10-14T00:55:04.431Z,21.83
2022-10-14T00:57:31.985Z,22.45
2022-10-14T01:00:05.032Z,23.83
2022-10-14T01:02:31.914Z,22.90
2022-10-14T01:05:00.142Z,24.48
2022-10-14T01:07:35.940Z,25.50
2022-10-14T01:10:09.822Z,22.05
2022-10-14T01:13:02.193Z,22.17
2022-10-14T01:15:44.233Z,22.73
2022-10-14T01:18:20.477Z,20.12
2022-10-14T01:20:56.446Z,21.77
2022-10-14T01:23:45.091Z,23.20
2022-10-14T01:26:20.712Z,19.37
2022-10-14T01:28:56.238Z,21.45
2022-10-14T01:31:26.017Z,21.77
2022-10-14T01:33:56.912Z,22.62
2022-10-14T01:36:27.461Z,19.95
2022-10-14T01:38:58.932Z,20.37
2022-10-14T01:41:29.364Z,20.37
2022-10-14T01:43:58.750Z,22.65
2022-10-14T01:46:27.482Z,20.77
2022-10-14T01:49:03.355Z,23.02
2022-10-14T01:51:41.586Z,21.90
2022-10-14T01:54:15.763Z,23.77
2022-10-14T01:56:45.746Z,20.95
2022-10-14T01:59:13.658Z,19.17
2022-10-14T02:01:40.681Z,27.52
2022-10-14T02:04:21.157Z,22.40
2022-10-14T02:07:12.302Z,29.15
2022-10-14T02:09:54.739Z,24.00
2022-10-14T02:12:46.078Z,23.58
2022-10-14T02:15:21.344Z,23.15
2022-10-14T02:18:09.665Z,25.40
2022-10-14T02:21:03.898Z,26.50
2022-10-14T02:23:33.605Z,26.17
2022-10-14T02:26:00.623Z,29.25
2022-10-14T02:28:28.239Z,28.15
2022-10-14T02:31:00.991Z,26.27
2022-10-14T02:33:33.416Z,27.25
2022-10-14T02:36:02.127Z,24.73
2022-10-14T02:38:30.554Z,23.58
2022-10-14T02:40:57.675Z,23.15
2022-10-14T02:43:24.581Z,22.87
2022-10-14T02:45:57.569Z,24.23
2022-10-14T02:48:24.664Z,22.85
2022-10-14T02:50:51.543Z,22.00
2022-10-14T02:53:18.405Z,24.50
2022-10-14T02:55:45.257Z,25.80
2022-10-14T02:58:12.130Z,24.83
2022-10-14T03:00:38.950Z,24.85
2022-10-14T03:03:05.833Z,28.60
2022-10-14T03:05:32.656Z,25.77
2022-10-14T03:07:59.468Z,25.90
2022-10-14T03:10:26.354Z,26.17
2022-10-14T03:12:53.345Z,31.80
2022-10-14T03:15:21.088Z,28.25
2022-10-14T03:17:47.944Z,25.60
2022-10-14T03:20:14.798Z,27.17
2022-10-14T03:22:42.171Z,28.95
2022-10-14T03:25:09.514Z,25.48
2022-10-14T03:27:36.372Z,27.70
2022-10-14T03:30:03.781Z,23.35
2022-10-14T03:32:30.653Z,23.50
2022-10-14T03:34:57.917Z,27.27
2022-10-14T03:37:24.801Z,24.87
2022-10-14T03:39:51.635Z,24.83
2022-10-14T03:42:18.675Z,24.27
2022-10-14T03:44:46.427Z,25.45
2022-10-14T03:47:13.285Z,24.25
2022-10-14T03:49:40.109Z,25.25
2022-10-14T03:52:06.940Z,20.83
2022-10-14T03:54:34.093Z,23.02
2022-10-14T03:57:00.941Z,29.10
2022-10-14T03:59:27.779Z,36.47
2022-10-14T04:01:54.629Z,33.60
2022-10-14T04:04:21.554Z,30.52
2022-10-14T04:06:48.381Z,33.72
2022-10-14T04:09:15.326Z,33.60
2022-10-14T04:11:42.308Z,30.42
2022-10-14T04:14:09.525Z,28.90
2022-10-14T04:16:36.432Z,30.60
2022-10-14T04:19:03.605Z,28.35
2022-10-14T04:21:30.469Z,26.90
2022-10-14T04:23:57.306Z,23.38
2022-10-14T04:26:24.155Z,31.15
2022-10-14T04:28:51.310Z,28.35
2022-10-14T04:31:18.237Z,32.10
2022-10-14T04:33:45.075Z,29.90
2022-10-14T04:36:11.925Z,29.27
2022-10-14T04:38:38.753Z,25.05
2022-10-14T04:41:05.680Z,32.47
2022-10-14T04:43:32.552Z,28.55
2022-10-14T04:45:59.387Z,29.70
2022-10-14T04:48:26.248Z,32.80
2022-10-14T04:50:54.136Z,28.38
2022-10-14T04:53:22.252Z,28.02
2022-10-14T04:55:49.893Z,38.83
2022-10-14T04:58:17.196Z,63.45
2022-10-14T05:00:44.123Z,39.00
2022-10-14T05:03:11.062Z,47.80
2022-10-14T05:05:37.945Z,41.67
2022-10-14T05:08:05.016Z,55.63
2022-10-14T05:10:31.994Z,50.85
2022-10-14T05:12:58.820Z,62.80
2022-10-14T05:15:25.682Z,45.78
2022-10-14T05:17:52.519Z,40.03
2022-10-14T05:20:19.458Z,43.13
2022-10-14T05:22:46.278Z,46.13
2022-10-14T05:25:13.123Z,45.95
2022-10-14T05:27:40.481Z,41.53
2022-10-14T05:30:07.900Z,47.45
2022-10-14T05:32:34.707Z,42.53
2022-10-14T05:35:01.600Z,42.65
2022-10-14T05:37:28.471Z,45.88
2022-10-14T05:39:55.442Z,49.35
2022-10-14T05:42:22.542Z,61.35
2022-10-14T05:44:49.810Z,93.47
2022-10-14T05:47:16.871Z,86.60
2022-10-14T05:49:43.695Z,80.47
2022-10-14T05:52:10.516Z,76.20
2022-10-14T05:54:37.404Z,43.13
2022-10-14T05:57:04.380Z,45.90
2022-10-14T05:59:33.437Z,44.05
2022-10-14T06:02:00.432Z,35.15
2022-10-14T06:04:27.555Z,30.00
2022-10-14T06:06:54.423Z,34.22
2022-10-14T06:09:21.279Z,34.35
2022-10-14T06:11:48.460Z,33.05
2022-10-14T06:14:15.339Z,35.58
2022-10-14T06:16:42.213Z,40.08
2022-10-14T06:19:09.073Z,34.53
2022-10-14T06:21:35.864Z,35.92
2022-10-14T06:24:02.703Z,37.95
2022-10-14T06:26:29.531Z,46.35
2022-10-14T06:28:56.481Z,49.25
2022-10-14T06:31:23.389Z,53.50
2022-10-14T06:33:50.384Z,61.63
2022-10-14T06:36:17.289Z,64.80
2022-10-14T06:38:44.153Z,59.28
2022-10-14T06:41:11.222Z,51.22
2022-10-14T06:43:38.242Z,52.45
2022-10-14T06:46:05.724Z,47.55
2022-10-14T06:48:32.596Z,38.47
2022-10-14T06:51:00.372Z,37.58
2022-10-14T06:53:27.982Z,32.58
2022-10-14T06:56:01.945Z,36.58
2022-10-14T06:58:29.221Z,33.92
2022-10-14T07:03:27.977Z,31.12
2022-10-14T07:05:54.963Z,29.00
2022-10-14T07:08:21.802Z,26.30
2022-10-14T07:10:48.787Z,30.05
2022-10-14T07:13:15.613Z,24.23
2022-10-14T07:15:42.561Z,24.30
2022-10-14T07:18:09.399Z,21.25
2022-10-14T07:20:36.310Z,23.85
2022-10-14T07:23:03.206Z,27.80
2022-10-14T07:25:30.046Z,21.35
2022-10-14T07:27:56.944Z,24.33
2022-10-14T07:30:23.891Z,21.70
2022-10-14T07:32:50.751Z,27.75
2022-10-14T07:35:19.149Z,24.75
2022-10-14T07:37:46.647Z,20.40
2022-10-14T07:40:14.161Z,23.48
2022-10-14T07:42:41.067Z,24.87
2022-10-14T07:45:08.497Z,29.55
2022-10-14T07:47:35.401Z,29.27
2022-10-14T07:50:02.378Z,26.62
2022-10-14T07:52:29.205Z,32.03
2022-10-14T07:54:56.071Z,28.00
2022-10-14T07:57:24.097Z,27.13
2022-10-14T07:59:52.774Z,31.65
2022-10-14T08:02:19.778Z,27.08
2022-10-14T08:04:47.018Z,28.77
2022-10-14T08:07:16.638Z,30.33
2022-10-14T08:09:43.705Z,26.92
2022-10-14T08:12:10.699Z,26.08
2022-10-14T08:14:37.920Z,26.90
2022-10-14T08:17:04.959Z,29.98
2022-10-14T08:19:32.095Z,28.52
2022-10-14T08:21:59.195Z,27.20
2022-10-14T08:24:26.098Z,33.20
2022-10-14T08:26:55.166Z,32.72
2022-10-14T08:29:25.753Z,24.60
2022-10-14T08:31:54.335Z,27.52
2022-10-14T08:34:21.966Z,30.95
2022-10-14T08:36:49.143Z,26.37
2022-10-14T08:39:19.444Z,31.35
2022-10-14T08:42:00.678Z,28.00
2022-10-14T08:44:34.564Z,26.60
2022-10-14T08:47:03.134Z,29.45
2022-10-14T08:49:35.879Z,24.77
2022-10-14T08:52:13.013Z,33.88
2022-10-14T08:54:42.149Z,26.50
2022-10-14T08:57:15.056Z,26.58
2022-10-14T08:59:42.634Z,29.15
2022-10-14T09:02:25.729Z,26.90
2022-10-14T09:04:52.570Z,25.12
2022-10-14T09:07:20.267Z,23.58
2022-10-14T09:10:08.289Z,24.23
2022-10-14T09:12:36.053Z,23.95
2022-10-14T09:15:19.818Z,25.27
2022-10-14T09:17:52.903Z,27.20
2022-10-14T09:20:22.455Z,24.00
2022-10-14T09:23:19.537Z,21.37
2022-10-14T09:25:59.031Z,23.75
2022-10-14T09:28:40.761Z,26.87
2022-10-14T09:31:11.568Z,24.15
2022-10-14T09:33:42.628Z,21.80
2022-10-14T09:36:17.673Z,22.10
2022-10-14T09:38:47.485Z,27.75
2022-10-14T09:41:16.821Z,23.33
2022-10-14T09:44:23.948Z,24.98
2022-10-14T09:46:54.206Z,21.35
2022-10-14T09:49:29.954Z,25.55
2022-10-14T09:51:57.790Z,21.25
2022-10-14T09:54:26.684Z,21.00
2022-10-14T09:57:05.571Z,26.15
2022-10-14T09:59:32.858Z,19.25
2022-10-14T10:02:02.144Z,23.40
2022-10-14T10:04:31.952Z,18.17
2022-10-14T10:07:00.713Z,21.33
2022-10-14T10:09:27.933Z,19.77
2022-10-14T10:11:55.410Z,20.00
2022-10-14T10:14:30.849Z,18.80
2022-10-14T10:17:10.102Z,19.87
2022-10-14T10:19:44.867Z,22.37
2022-10-14T10:22:26.733Z,18.62
2022-10-14T10:25:03.653Z,19.62
2022-10-14T10:27:36.733Z,19.80
2022-10-14T10:30:21.708Z,16.58
2022-10-14T10:32:57.198Z,15.65
2022-10-14T10:36:04.327Z,18.40
2022-10-14T10:39:19.075Z,17.45
2022-10-14T10:42:08.243Z,18.60
2022-10-14T10:44:49.636Z,18.92
2022-10-14T10:47:47.792Z,19.75
2022-10-14T10:50:42.605Z,18.10
2022-10-14T10:53:33.902Z,15.15
2022-10-14T10:56:07.364Z,18.60
2022-10-14T10:58:57.802Z,18.05
2022-10-14T11:04:33.688Z,13.85
2022-10-14T11:07:47.862Z,15.82
2022-10-14T11:18:00.967Z,15.60
2022-10-14T11:24:46.282Z,19.55
2022-10-14T11:33:27.920Z,18.83
2022-10-14T11:36:03.685Z,17.85
2022-10-14T11:41:18.987Z,18.70
2022-10-14T11:44:12.613Z,17.20
2022-10-14T11:46:43.174Z,18.23
2022-10-14T11:49:22.729Z,17.52
2022-10-14T11:52:00.058Z,17.50
2022-10-14T11:54:35.652Z,17.90
2022-10-14T11:57:20.443Z,21.92
2022-10-14T11:59:56.043Z,18.73
2022-10-14T12:02:45.077Z,21.25
2022-10-14T12:05:35.237Z,21.62
2022-10-14T12:08:17.344Z,21.73
2022-10-14T12:11:19.534Z,23.40
2022-10-14T12:13:57.222Z,23.05
2022-10-14T12:16:29.299Z,22.37
2022-10-14T12:19:02.174Z,24.95
2022-10-14T12:21:41.042Z,24.35
2022-10-14T12:24:14.123Z,20.37
2022-10-14T12:26:57.187Z,22.00
2022-10-14T12:29:43.338Z,21.10
2022-10-14T12:32:26.410Z,19.05
2022-10-14T12:35:01.549Z,22.62
2022-10-14T12:37:35.480Z,23.35
2022-10-14T12:40:02.610Z,22.98
2022-10-14T12:42:35.452Z,23.10
2022-10-14T12:45:04.769Z,21.48
2022-10-14T12:47:38.635Z,21.45
2022-10-14T12:50:27.359Z,23.20
2022-10-14T12:53:06.782Z,19.80
2022-10-14T12:55:48.006Z,21.48
2022-10-14T12:58:41.480Z,22.15
2022-10-14T13:01:19.995Z,20.88
2022-10-14T13:03:54.384Z,23.92
2022-10-14T13:06:39.461Z,21.92
2022-10-14T13:09:12.764Z,22.00
2022-10-14T13:11:59.498Z,21.23
2022-10-14T13:14:30.029Z,24.42
2022-10-14T13:17:00.885Z,22.90
2022-10-14T13:19:33.672Z,27.77
2022-10-14T13:22:02.321Z,25.98
2022-10-14T13:24:32.116Z,26.10
2022-10-14T13:27:30.924Z,25.23
2022-10-14T13:30:08.163Z,22.52
2022-10-14T13:32:50.300Z,23.38
2022-10-14T13:35:31.340Z,22.73
2022-10-14T13:38:05.395Z,23.70
2022-10-14T13:40:35.515Z,20.75
2022-10-14T13:43:28.785Z,23.55
2022-10-14T13:46:00.492Z,24.63
2022-10-14T13:48:51.022Z,23.35
2022-10-14T13:51:45.023Z,25.15
2022-10-14T13:54:16.158Z,23.50
2022-10-14T13:56:43.431Z,22.55
2022-10-14T13:59:44.400Z,21.48
2022-10-14T14:02:25.839Z,24.37
2022-10-14T14:04:55.809Z,23.38
2022-10-14T14:07:47.805Z,24.00
2022-10-14T14:10:12.797Z,24.77
2022-10-14T14:12:42.864Z,27.20
2022-10-14T14:15:19.274Z,23.02
2022-10-14T14:17:46.079Z,23.45
2022-10-14T14:20:12.938Z,26.75
2022-10-14T14:22:46.317Z,26.42
2022-10-14T14:25:46.763Z,28.42
2022-10-14T14:28:13.822Z,25.23
2022-10-14T14:30:40.659Z,25.62
2022-10-14T14:33:11.461Z,25.45
2022-10-14T14:35:38.351Z,27.77
2022-10-14T14:38:05.185Z,24.10
2022-10-14T14:40:32.242Z,27.02
2022-10-14T14:43:01.338Z,25.40
2022-10-14T14:45:30.981Z,25.20
2022-10-14T14:47:59.302Z,27.48
2022-10-14T14:50:36.399Z,28.17
2022-10-14T14:53:06.903Z,26.73
2022-10-14T14:55:37.669Z,28.42
2022-10-14T14:58:06.889Z,27.75
2022-10-14T15:00:33.762Z,28.17
2022-10-14T15:03:02.339Z,26.08
2022-10-14T15:05:30.121Z,27.52
2022-10-14T15:07:57.230Z,26.73
2022-10-14T15:10:29.867Z,28.95
2022-10-14T15:12:58.540Z,29.35
2022-10-14T15:15:32.408Z,26.83
2022-10-14T15:18:20.562Z,29.60
2022-10-14T15:20:49.547Z,26.85
2022-10-14T15:23:50.598Z,28.33
2022-10-14T15:26:22.926Z,27.48
2022-10-14T15:29:14.865Z,31.27
2022-10-14T15:31:47.669Z,28.58
2022-10-14T15:34:22.635Z,28.95
2022-10-14T15:36:51.202Z,31.48
2022-10-14T15:39:18.602Z,31.58
2022-10-14T15:41:48.068Z,32.30
2022-10-14T15:44:15.252Z,31.12
2022-10-14T15:47:02.304Z,30.33
2022-10-14T15:49:32.033Z,32.30
2022-10-14T15:51:59.013Z,33.63
2022-10-14T15:54:27.759Z,36.33
2022-10-14T15:59:27.796Z,41.70
2022-10-14T16:01:54.870Z,48.45
2022-10-14T16:04:24.979Z,65.03
2022-10-14T16:06:55.386Z,63.38
2022-10-14T16:09:27.827Z,62.17
2022-10-14T16:11:57.650Z,73.87
2022-10-14T16:14:25.412Z,63.95
2022-10-14T16:16:52.263Z,62.25
2022-10-14T16:19:19.813Z,62.35
2022-10-14T16:21:48.029Z,46.47
2022-10-14T16:24:20.443Z,58.53
2022-10-14T16:26:51.446Z,67.15
2022-10-14T16:29:19.732Z,63.13
2022-10-14T16:31:50.313Z,61.58
2022-10-14T16:34:21.262Z,58.65
2022-10-14T16:36:51.406Z,56.80
2022-10-14T16:39:19.544Z,60.88
2022-10-14T16:41:46.539Z,62.80
2022-10-14T16:44:33.655Z,67.15
2022-10-14T16:47:20.330Z,94.82
2022-10-14T16:49:49.367Z,111.53
2022-10-14T16:52:16.570Z,98.87
2022-10-14T16:54:43.445Z,63.28
2022-10-14T16:57:10.821Z,82.15
2022-10-14T16:59:37.737Z,93.82
2022-10-14T17:02:05.257Z,95.35
2022-10-14T17:04:32.134Z,78.15
2022-10-14T17:06:59.046Z,72.50
2022-10-14T17:11:57.542Z,81.55
2022-10-14T17:14:24.425Z,74.12
2022-10-14T17:16:52.661Z,71.20
2022-10-14T17:19:19.984Z,68.78
2022-10-14T17:21:47.457Z,55.22
2022-10-14T17:24:15.222Z,55.75
2022-10-14T17:26:42.044Z,45.20
2022-10-14T17:29:08.917Z,39.08
2022-10-14T17:31:38.005Z,34.20
2022-10-14T17:34:05.195Z,35.13
2022-10-14T17:36:32.085Z,32.47
2022-10-14T17:38:59.463Z,35.00
2022-10-14T17:41:28.903Z,34.20
2022-10-14T17:43:57.892Z,34.88
2022-10-14T17:46:26.327Z,34.83
2022-10-14T17:48:56.319Z,31.10
2022-10-14T17:51:25.615Z,34.35
2022-10-14T17:53:57.184Z,31.45
2022-10-14T17:56:24.939Z,41.25
2022-10-14T17:58:54.949Z,33.30
2022-10-14T18:01:36.705Z,34.85
2022-10-14T18:04:09.297Z,35.05
2022-10-14T18:06:37.605Z,34.35
2022-10-14T18:09:08.107Z,35.60
2022-10-14T18:12:07.191Z,36.00
2022-10-14T18:14:27.678Z,35.63
2022-10-14T18:16:54.522Z,32.95
2022-10-14T18:19:21.412Z,35.78
2022-10-14T18:21:48.307Z,32.58
2022-10-14T18:24:15.184Z,33.28
2022-10-14T18:26:42.150Z,31.90
2022-10-14T18:29:09.422Z,33.67
2022-10-14T18:31:36.920Z,31.08
2022-10-14T18:34:03.875Z,37.78
2022-10-14T18:36:33.259Z,31.87
2022-10-14T18:39:03.164Z,34.22
2022-10-14T18:41:30.905Z,30.62
2022-10-14T18:44:00.415Z,35.85
2022-10-14T18:46:29.874Z,49.72
2022-10-14T18:48:58.092Z,41.00
2022-10-14T18:51:29.499Z,47.72
2022-10-14T18:53:58.357Z,52.65
2022-10-14T18:56:28.072Z,41.97
2022-10-14T18:58:57.842Z,58.65
2022-10-14T19:01:26.520Z,47.40
2022-10-14T19:03:54.154Z,46.33
2022-10-14T19:06:21.588Z,59.35
2022-10-14T19:08:48.968Z,81.28
2022-10-14T19:11:20.429Z,72.57
2022-10-14T19:13:48.748Z,73.85
2022-10-14T19:16:21.534Z,73.70
2022-10-14T19:18:52.970Z,77.12
2022-10-14T19:21:22.332Z,90.20
2022-10-14T19:23:50.222Z,94.13
2022-10-14T19:26:22.137Z,96.82
2022-10-14T19:28:50.058Z,111.07
2022-10-14T19:31:22.968Z,100.90
2022-10-14T19:33:49.863Z,81.90
2022-10-14T19:36:18.306Z,96.47
2022-10-14T19:38:52.363Z,102.75
2022-10-14T19:41:19.314Z,133.93
2022-10-14T19:43:46.162Z,127.57
2022-10-14T19:46:14.503Z,127.32
2022-10-14T19:48:41.791Z,115.78
2022-10-14T19:51:12.052Z,108.63
2022-10-14T19:53:39.353Z,100.82
2022-10-14T19:56:11.980Z,122.05
2022-10-14T19:58:42.317Z,64.37
2022-10-14T20:01:16.883Z,57.40
2022-10-14T20:03:44.097Z,87.53
2022-10-14T20:06:12.265Z,91.95
2022-10-14T20:08:39.680Z,116.32
2022-10-14T20:11:08.441Z,84.03
2022-10-14T20:13:35.593Z,77.80
2022-10-14T20:16:02.722Z,84.35
2022-10-14T20:18:30.250Z,69.65
2022-10-14T20:20:57.478Z,49.75
2022-10-14T20:23:25.414Z,42.45
2022-10-14T20:25:52.313Z,37.55
2022-10-14T20:28:19.865Z,38.70
2022-10-14T20:30:48.071Z,35.22
2022-10-14T20:33:15.252Z,35.15
2022-10-14T20:35:42.063Z,50.53
2022-10-14T20:38:08.900Z,48.13
2022-10-14T20:40:35.928Z,42.50
2022-10-14T20:43:04.065Z,40.95
2022-10-14T20:45:30.978Z,51.10
2022-10-14T20:47:57.798Z,41.97
2022-10-14T20:50:24.640Z,40.03
2022-10-14T20:52:51.476Z,33.92
2022-10-14T20:55:18.338Z,35.47
2022-10-14T20:57:45.204Z,39.00
2022-10-14T21:00:12.767Z,43.10
2022-10-14T21:02:39.699Z,47.35
2022-10-14T21:05:06.837Z,41.83
2022-10-14T21:07:33.678Z,41.75
2022-10-14T21:10:00.978Z,38.67
2022-10-14T21:12:27.831Z,35.13
2022-10-14T21:14:54.690Z,38.42
2022-10-14T21:17:21.519Z,36.30
2022-10-14T21:19:49.081Z,36.00
2022-10-14T21:22:15.963Z,34.65
2022-10-14T21:24:42.881Z,33.13
2022-10-14T21:27:09.944Z,31.00
2022-10-14T21:29:36.857Z,32.63
2022-10-14T21:32:03.915Z,34.40
2022-10-14T21:34:30.762Z,38.60
2022-10-14T21:36:57.698Z,37.13
2022-10-14T21:39:24.641Z,34.38
2022-10-14T21:41:52.258Z,38.92
2022-10-14T21:44:20.817Z,39.80
2022-10-14T21:46:47.907Z,37.15
2022-10-14T21:49:15.933Z,42.55
2022-10-14T21:51:42.826Z,40.67
2022-10-14T21:54:12.393Z,39.20
2022-10-14T21:56:39.608Z,36.67
2022-10-14T21:59:06.911Z,34.25
2022-10-14T22:01:33.828Z,32.13
2022-10-14T22:04:05.944Z,33.03
2022-10-14T22:06:34.341Z,33.58
2022-10-14T22:09:02.781Z,30.98
2022-10-14T22:11:32.908Z,34.90
2022-10-14T22:14:01.516Z,41.88
2022-10-14T22:16:29.399Z,35.70
2022-10-14T22:18:59.060Z,36.05
2022-10-14T22:21:27.117Z,34.70
2022-10-14T22:23:54.294Z,35.13
2022-10-14T22:26:23.779Z,28.30
2022-10-14T22:28:57.423Z,31.62
2022-10-14T22:31:24.575Z,27.40
2022-10-14T22:33:51.424Z,30.08
2022-10-14T22:36:24.375Z,29.87
2022-10-14T22:38:52.807Z,28.60
2022-10-14T22:41:19.849Z,32.95
2022-10-14T22:43:51.774Z,32.63
2022-10-14T22:46:20.559Z,30.37
2022-10-14T22:48:48.862Z,30.55
2022-10-14T22:51:18.001Z,28.27
2022-10-14T22:53:45.740Z,33.88
2022-10-14T22:56:15.533Z,27.98
2022-10-14T22:58:42.558Z,31.58
2022-10-14T23:01:11.980Z,32.10
2022-10-14T23:03:38.862Z,30.27
2022-10-14T23:06:07.535Z,31.98
2022-10-14T23:08:35.445Z,38.75
2022-10-14T23:11:03.327Z,32.67
2022-10-14T23:13:30.412Z,34.47
2022-10-14T23:16:05.381Z,35.88
2022-10-14T23:18:34.768Z,46.97
2022-10-14T23:21:13.174Z,37.33
2022-10-14T23:23:40.414Z,35.33
2022-10-14T23:26:11.544Z,32.85
2022-10-14T23:28:38.752Z,31.12
2022-10-14T23:31:13.830Z,35.33
2022-10-14T23:33:40.847Z,32.20
2022-10-14T23:36:10.367Z,30.73
2022-10-14T23:38:37.905Z,28.08
2022-10-14T23:41:05.947Z,26.05
2022-10-14T23:43:33.173Z,24.77
2022-10-14T23:46:01.030Z,36.22
2022-10-14T23:48:28.133Z,28.17
2022-10-14T23:50:55.433Z,29.92
2022-10-14T23:53:22.699Z,24.77
2022-10-14T23:55:49.541Z,29.30
2022-10-14T23:58:16.466Z,27.00
